Time;durP1;ratioP1;P1;durP2;ratioP2;P2;SDS_P1;SDS_P2;PMS_P1;PMS_P2;Temp;Humidity;BMP_temperature;BMP_pressure;BME280_temperature;BME280_humidity;BME280_pressure;Samples;Min_cycle;Max_cycle;Signal;HPM_P1;HPM_P2
2022/06/10 14:13:01;;;;;;;7.90;7.30;;;;;;;25.59;49.58;93849.81;4973083;28;20584;-80
2022/06/10 14:15:31;;;;;;;8.97;8.17;;;;;;;26.84;47.67;93851.38;4976011;28;20451;-80
2022/06/10 14:18:00;;;;;;;8.37;7.73;;;;;;;26.93;46.45;93852.19;4974232;28;20987;-80
2022/06/10 14:20:33;;;;;;;8.90;8.10;;;;;;;26.87;46.74;93851.53;4974231;28;20447;-81
2022/06/10 14:23:24;;;;;;;8.77;8.07;;;;;;;27.37;45.87;93852.91;4974548;28;20560;-81
2022/06/10 14:26:12;;;;;;;9.40;8.50;;;;;;;25.78;48.99;93852.25;4971721;28;20532;-80
2022/06/10 14:28:42;;;;;;;8.33;7.63;;;;;;;25.11;50.43;93848.56;4967742;28;20456;-80
2022/06/10 14:31:28;;;;;;;8.10;7.50;;;;;;;26.11;48.45;93851.91;4973359;28;20433;-80
2022/06/10 14:33:56;;;;;;;9.73;8.93;;;;;;;26.32;47.61;93846.75;4971955;28;20432;-80
2022/06/10 14:36:24;;;;;;;8.63;8.03;;;;;;;26.13;47.92;93844.34;4974661;28;20437;-80
2022/06/10 14:39:04;;;;;;;8.23;7.50;;;;;;;26.28;47.70;93846.59;4971215;28;20486;-79
2022/06/10 14:41:30;;;;;;;9.13;8.43;;;;;;;26.67;46.83;93844.94;4972727;28;20992;-82
2022/06/10 14:43:58;;;;;;;8.20;7.50;;;;;;;25.96;48.20;93849.66;4973951;28;20467;-80
2022/06/10 14:46:26;;;;;;;8.40;7.80;;;;;;;26.07;48.77;93845.59;4974637;28;20188;-80
2022/06/10 14:48:52;;;;;;;10.47;9.33;;;;;;;25.94;48.99;93846.50;4974621;28;20492;-81
2022/06/10 14:51:20;;;;;;;8.47;7.80;;;;;;;26.02;48.86;93840.38;4974864;28;20444;-80
2022/06/10 14:53:53;;;;;;;10.50;9.60;;;;;;;26.12;49.34;93853.47;4975648;28;20434;-80
2022/06/10 14:56:33;;;;;;;9.63;8.93;;;;;;;26.01;51.29;93863.72;4974720;28;20437;-80
2022/06/10 14:58:58;;;;;;;13.17;11.93;;;;;;;25.43;55.67;93870.06;4974088;28;20426;-80
2022/06/10 15:01:28;;;;;;;14.30;12.87;;;;;;;24.99;59.68;93877.78;4958529;28;20437;-80
2022/06/10 15:03:57;;;;;;;14.50;13.10;;;;;;;24.15;62.50;93887.09;4982481;28;20218;-80
2022/06/10 15:06:30;;;;;;;15.17;13.70;;;;;;;24.39;61.85;93889.50;4977817;28;20453;-80
2022/06/10 15:09:20;;;;;;;12.60;11.33;;;;;;;24.91;60.54;93894.59;4973421;28;20417;-79
2022/06/10 15:12:00;;;;;;;13.13;11.80;;;;;;;24.73;60.78;93898.97;4975015;28;20549;-79
2022/06/10 15:14:39;;;;;;;10.53;9.37;;;;;;;24.25;59.44;93902.91;4959481;28;20440;-79
2022/06/10 15:17:11;;;;;;;10.77;9.67;;;;;;;24.37;59.09;93899.72;4982385;28;20443;-81
2022/06/10 15:19:36;;;;;;;11.33;9.73;;;;;;;24.35;58.99;93897.34;4983731;28;20422;-81
2022/06/10 15:22:03;;;;;;;13.63;12.47;;;;;;;23.88;61.07;93904.69;4965939;28;20457;-80
2022/06/10 15:24:28;;;;;;;13.27;12.17;;;;;;;24.28;60.56;93912.19;4966180;28;20179;-81
2022/06/10 15:26:56;;;;;;;12.80;11.70;;;;;;;24.29;60.24;93905.78;4969226;28;20536;-81
2022/06/10 15:29:24;;;;;;;13.43;12.27;;;;;;;24.54;59.20;93904.47;4971639;28;20272;-80
2022/06/10 15:31:51;;;;;;;14.37;13.00;;;;;;;24.15;60.95;93901.22;4972242;28;20452;-79
2022/06/10 15:34:19;;;;;;;12.10;10.90;;;;;;;23.79;61.38;93909.16;4966179;28;20415;-80
2022/06/10 15:42:20;;;;;;;12.07;11.07;;;;;;;23.54;62.72;93916.50;4972152;28;20461;-79
2022/06/10 15:44:46;;;;;;;12.53;11.43;;;;;;;23.03;64.35;93922.66;4976387;28;20410;-80
2022/06/10 15:47:14;;;;;;;13.50;12.40;;;;;;;22.84;65.20;93913.84;4976221;28;20694;-81
2022/06/10 15:49:41;;;;;;;12.30;11.30;;;;;;;22.98;64.83;93930.72;4981719;28;20576;-79
2022/06/10 15:52:30;;;;;;;12.47;11.47;;;;;;;23.27;64.37;93927.09;4979251;28;20437;-81
2022/06/10 15:57:45;;;;;;;15.03;13.53;;;;;;;22.88;65.60;93929.00;4971839;28;20857;-80
2022/06/10 16:00:16;;;;;;;13.10;11.60;;;;;;;22.44;66.47;93931.97;4982321;28;21387;-80
2022/06/10 16:02:42;;;;;;;15.03;13.70;;;;;;;22.60;66.61;93930.72;4976516;28;20503;-81
2022/06/10 16:05:20;;;;;;;15.30;11.27;;;;;;;22.27;66.46;93943.13;4976426;28;20899;-80
2022/06/10 16:07:45;;;;;;;12.40;11.40;;;;;;;22.21;67.28;93942.34;4976948;28;20165;-80
2022/06/10 16:10:11;;;;;;;11.40;10.43;;;;;;;22.47;65.71;93948.19;4981420;28;20968;-79
2022/06/10 16:15:51;;;;;;;10.30;9.30;;;;;;;21.81;66.88;93941.72;4943244;28;20432;-80
2022/06/10 16:18:30;;;;;;;10.20;9.33;;;;;;;21.92;66.87;93948.53;4973046;28;20433;-81
2022/06/10 16:20:57;;;;;;;9.10;6.70;;;;;;;21.68;66.64;93937.84;4975524;28;20448;-80
2022/06/10 16:23:36;;;;;;;9.10;8.30;;;;;;;22.25;65.41;93934.59;4983419;28;20464;-80
2022/06/10 16:26:25;;;;;;;10.17;9.30;;;;;;;22.53;64.87;93935.59;4983406;28;20445;-81
2022/06/10 16:28:53;;;;;;;10.17;9.27;;;;;;;22.59;64.34;93929.94;4959395;28;20421;-81
2022/06/10 16:31:22;;;;;;;9.90;9.10;;;;;;;22.78;63.80;93929.13;4975295;28;20810;-80
2022/06/10 16:33:48;;;;;;;9.97;8.97;;;;;;;22.91;62.83;93920.38;4976650;28;20440;-80
2022/06/10 16:36:17;;;;;;;9.97;8.97;;;;;;;22.87;62.97;93923.94;4978586;28;20512;-80
2022/06/10 16:38:44;;;;;;;9.47;8.77;;;;;;;23.16;61.84;93927.25;4975956;28;20428;-81
2022/06/10 16:41:41;;;;;;;8.40;7.70;;;;;;;23.10;61.38;93912.41;4986096;28;20517;-80
2022/06/10 16:44:25;;;;;;;8.30;7.60;;;;;;;23.08;61.69;93911.09;4979486;28;20439;-81
2022/06/10 16:46:57;;;;;;;8.90;8.10;;;;;;;23.00;61.30;93910.66;4963718;28;20469;-81
2022/06/10 16:49:26;;;;;;;8.67;8.00;;;;;;;23.46;60.84;93919.03;4976344;28;20413;-80
2022/06/10 16:52:15;;;;;;;8.97;8.20;;;;;;;23.14;61.29;93917.94;4976128;28;20439;-80
2022/06/10 16:54:42;;;;;;;8.83;8.13;;;;;;;23.63;59.99;93921.94;4987507;28;20454;-81
2022/06/10 16:57:16;;;;;;;9.53;8.63;;;;;;;23.28;60.43;93926.03;4974986;28;20444;-81
2022/06/10 16:59:42;;;;;;;8.60;7.80;;;;;;;23.34;59.74;93927.53;4984890;28;20413;-80
2022/06/10 17:02:33;;;;;;;7.40;6.80;;;;;;;23.39;58.80;93924.75;4993129;28;20685;-82
2022/06/10 17:05:03;;;;;;;7.40;6.80;;;;;;;23.63;58.47;93923.81;4976869;28;20941;-81
2022/06/10 17:07:31;;;;;;;9.17;8.47;;;;;;;23.80;58.86;93932.09;4982429;28;20534;-80
2022/06/10 17:09:57;;;;;;;8.30;7.60;;;;;;;23.37;59.60;93929.59;4977841;28;20520;-80
2022/06/10 17:12:26;;;;;;;7.50;6.90;;;;;;;23.41;59.49;93930.63;4979069;28;20572;-81
2022/06/10 17:15:16;;;;;;;7.23;6.60;;;;;;;22.94;60.98;93929.72;4974993;28;20429;-82
2022/06/10 17:17:44;;;;;;;7.27;6.57;;;;;;;22.70;61.31;93927.88;4971844;28;20880;-81
2022/06/10 17:20:19;;;;;;;6.60;6.10;;;;;;;22.69;61.35;93928.19;4976505;28;20437;-80
2022/06/10 17:22:45;;;;;;;6.17;5.77;;;;;;;22.65;61.53;93940.50;4981917;28;21190;-81
2022/06/10 17:25:11;;;;;;;7.30;6.70;;;;;;;22.79;60.84;93928.06;4974304;28;20491;-81
2022/06/10 17:27:38;;;;;;;7.60;6.80;;;;;;;22.73;61.76;93924.66;4974633;28;20275;-81
2022/06/10 17:30:19;;;;;;;6.87;6.27;;;;;;;22.49;62.11;93924.72;4979571;28;21017;-81
2022/06/10 17:32:44;;;;;;;9.80;7.00;;;;;;;22.49;62.31;93930.03;4977206;28;20433;-80
2022/06/10 17:35:20;;;;;;;7.23;6.63;;;;;;;22.87;61.26;93930.06;4966031;28;20432;-79
2022/06/10 17:37:46;;;;;;;7.00;6.40;;;;;;;22.75;61.27;93935.84;4972677;28;20521;-81
2022/06/10 17:40:12;;;;;;;7.37;6.63;;;;;;;22.69;61.89;93929.00;4963900;28;21011;-80
2022/06/10 17:42:41;;;;;;;6.00;5.50;;;;;;;22.00;63.76;93934.59;4970063;28;20201;-80
2022/06/10 17:45:25;;;;;;;6.40;5.90;;;;;;;21.52;65.32;93926.56;4964429;28;20509;-82
2022/06/10 17:47:51;;;;;;;7.03;6.43;;;;;;;22.02;63.62;93915.66;4964205;28;20601;-80
2022/06/10 17:50:29;;;;;;;7.67;6.97;;;;;;;22.42;62.23;93913.59;4962428;28;21508;-80
2022/06/10 17:52:56;;;;;;;6.97;6.37;;;;;;;22.43;62.93;93909.88;4970096;28;20409;-81
2022/06/10 17:55:22;;;;;;;8.60;7.67;;;;;;;22.74;61.69;93920.91;4968217;28;20454;-80
2022/06/10 17:57:54;;;;;;;7.67;6.67;;;;;;;22.78;60.86;93913.94;4965064;28;20429;-80
2022/06/10 18:00:25;;;;;;;7.73;6.77;;;;;;;22.80;60.68;93918.94;4964535;28;20422;-80
2022/06/10 18:03:02;;;;;;;7.87;7.17;;;;;;;23.26;59.94;93920.16;4969542;28;20471;-80
2022/06/10 18:05:34;;;;;;;8.53;7.20;;;;;;;23.03;60.75;93921.81;4969466;28;20540;-79
2022/06/10 18:08:04;;;;;;;7.70;7.00;;;;;;;23.27;60.41;93922.53;4965699;28;20975;-81
2022/06/10 18:10:31;;;;;;;8.40;7.70;;;;;;;23.56;59.69;93921.53;4970402;28;20469;-82
2022/06/10 18:15:49;;;;;;;8.60;7.93;;;;;;;23.50;60.10;93920.81;4969077;28;20987;-81
2022/06/10 18:18:16;;;;;;;9.30;7.93;;;;;;;23.46;60.51;93925.16;4958470;28;20437;-80
2022/06/10 18:20:43;;;;;;;8.33;7.73;;;;;;;23.63;59.86;93929.19;4967398;28;20469;-80
2022/06/10 18:23:27;;;;;;;9.13;8.27;;;;;;;23.47;59.79;93929.44;4965063;28;20497;-80
2022/06/10 18:25:54;;;;;;;9.10;8.30;;;;;;;23.96;59.38;93935.28;4964699;28;20540;-80
2022/06/10 18:28:20;;;;;;;7.93;7.20;;;;;;;23.78;59.89;93932.38;4963165;28;20518;-81
2022/06/10 18:30:57;;;;;;;9.50;8.70;;;;;;;24.00;58.47;93927.44;4968901;28;20433;-81
2022/06/10 18:33:23;;;;;;;9.47;8.57;;;;;;;23.80;58.94;93924.06;4967816;28;20231;-79
2022/06/10 18:35:51;;;;;;;11.73;9.47;;;;;;;23.42;58.98;93934.06;4951832;28;21263;-80
2022/06/10 18:38:20;;;;;;;9.57;8.67;;;;;;;23.82;59.11;93937.94;4968557;28;20181;-80
2022/06/10 18:40:48;;;;;;;9.07;8.20;;;;;;;23.87;58.70;93940.53;4970202;28;21267;-80
2022/06/10 18:43:30;;;;;;;10.07;9.17;;;;;;;23.62;57.83;93940.94;4953798;28;20460;-81
2022/06/10 18:46:11;;;;;;;10.37;9.27;;;;;;;24.16;56.78;93953.59;4965365;28;21096;-80
2022/06/10 18:48:41;;;;;;;9.73;8.73;;;;;;;24.17;56.61;93954.41;4968756;28;20441;-81
2022/06/10 18:51:17;;;;;;;8.87;7.97;;;;;;;23.32;58.66;93959.06;4954438;28;21283;-80
2022/06/10 18:53:43;;;;;;;9.43;8.63;;;;;;;23.68;58.09;93963.81;4953842;28;20608;-80
2022/06/10 18:56:15;;;;;;;9.37;8.57;;;;;;;23.73;57.96;93961.03;4954066;28;20550;-79
2022/06/10 18:58:41;;;;;;;10.07;9.10;;;;;;;23.72;57.52;93959.47;4961752;28;20183;-79
2022/06/10 19:01:15;;;;;;;10.30;9.40;;;;;;;23.44;58.67;93964.72;4966470;28;21035;-80
2022/06/10 19:03:41;;;;;;;12.13;8.53;;;;;;;23.46;58.25;93965.22;4955606;28;20189;-80
2022/06/10 19:06:10;;;;;;;9.73;8.90;;;;;;;23.06;60.14;93964.78;4951187;28;20457;-79
2022/06/10 19:08:36;;;;;;;9.53;8.73;;;;;;;23.48;58.41;93965.72;4966879;28;20268;-80
2022/06/10 19:11:02;;;;;;;10.40;9.50;;;;;;;23.51;58.00;93959.81;4953051;28;20489;-80
2022/06/10 19:13:27;;;;;;;10.00;9.10;;;;;;;23.56;57.94;93965.09;4961987;28;20460;-80
2022/06/10 19:16:00;;;;;;;9.60;8.80;;;;;;;23.72;57.65;93965.59;4953230;28;20181;-80
2022/06/10 19:18:30;;;;;;;10.50;9.60;;;;;;;23.29;58.85;93975.66;4973029;28;20593;-80
2022/06/10 19:20:57;;;;;;;10.20;9.30;;;;;;;23.67;58.34;93968.34;4972293;28;20439;-80
2022/06/10 19:23:26;;;;;;;10.30;9.40;;;;;;;23.71;58.32;93969.38;4970286;28;20474;-80
2022/06/10 19:25:56;;;;;;;12.00;10.70;;;;;;;23.97;57.74;93972.41;4963049;28;21262;-79
2022/06/10 19:28:26;;;;;;;11.63;10.37;;;;;;;23.83;58.18;93976.13;4969390;28;20471;-81
2022/06/10 19:30:54;;;;;;;11.87;10.77;;;;;;;23.87;58.32;93972.59;4967255;28;20446;-80
2022/06/10 19:33:31;;;;;;;11.47;10.57;;;;;;;23.86;58.24;93968.31;4968003;28;20476;-81
2022/06/10 19:35:58;;;;;;;11.70;10.60;;;;;;;23.79;58.33;93970.63;4966688;28;20448;-81
2022/06/10 19:38:27;;;;;;;11.60;10.60;;;;;;;23.56;58.82;93965.09;4975284;28;20429;-80
2022/06/10 19:40:55;;;;;;;10.93;9.93;;;;;;;23.12;60.57;93963.59;4973388;28;20456;-79
2022/06/10 19:43:25;;;;;;;11.13;10.23;;;;;;;23.79;58.55;93970.63;4969190;28;20809;-80
2022/06/10 19:45:53;;;;;;;11.27;10.27;;;;;;;23.57;59.15;93968.53;4966898;28;20543;-81
2022/06/10 19:48:28;;;;;;;11.47;10.47;;;;;;;23.65;59.04;93967.06;4971776;28;20433;-80
2022/06/10 19:50:59;;;;;;;12.13;10.93;;;;;;;23.59;59.05;93967.16;4972337;28;20449;-81
2022/06/10 19:53:28;;;;;;;15.53;11.53;;;;;;;23.25;60.48;93972.78;4967794;28;20527;-80
2022/06/10 19:56:07;;;;;;;12.97;11.90;;;;;;;23.43;59.73;93973.03;4965457;28;20442;-81
2022/06/10 19:58:40;;;;;;;14.00;12.77;;;;;;;23.53;59.98;93980.91;4971733;28;20421;-81
2022/06/10 20:01:17;;;;;;;13.63;12.43;;;;;;;23.75;59.30;93977.56;4971819;28;20438;-80
2022/06/10 20:03:45;;;;;;;13.10;11.97;;;;;;;23.78;59.31;93985.00;4966750;28;20463;-79
2022/06/10 20:06:12;;;;;;;11.83;10.80;;;;;;;23.79;59.11;93983.97;4970285;28;20429;-80
2022/06/10 20:08:38;;;;;;;13.70;12.30;;;;;;;23.50;60.01;93987.59;4969646;28;20450;-80
2022/06/10 20:11:07;;;;;;;11.90;10.80;;;;;;;23.70;59.88;93993.72;4971452;28;20511;-81
2022/06/10 20:13:32;;;;;;;12.20;11.10;;;;;;;23.97;59.25;93991.13;4965633;28;20806;-80
2022/06/10 20:16:06;;;;;;;13.23;12.03;;;;;;;23.96;59.52;93992.22;4971098;28;20496;-80
2022/06/10 20:18:38;;;;;;;13.83;12.47;;;;;;;23.48;60.94;93997.00;4984034;28;20176;-79
2022/06/10 20:21:06;;;;;;;14.60;13.13;;;;;;;23.79;60.68;93997.34;4980833;28;20441;-79
2022/06/10 20:23:34;;;;;;;14.63;13.23;;;;;;;23.46;61.86;93999.94;4976028;28;20556;-80
2022/06/10 20:26:00;;;;;;;16.73;15.10;;;;;;;23.40;62.24;94001.13;4981937;28;20476;-80
2022/06/10 20:28:26;;;;;;;16.93;15.43;;;;;;;23.44;62.16;93996.00;4983014;28;20988;-80
2022/06/10 20:30:55;;;;;;;17.53;15.83;;;;;;;23.51;61.99;93994.53;4983350;28;20478;-80
2022/06/10 20:33:27;;;;;;;16.47;14.73;;;;;;;23.44;62.29;94004.78;4974652;28;20444;-80
2022/06/10 20:35:55;;;;;;;18.90;15.83;;;;;;;23.38;62.52;93995.28;4982941;28;20444;-81
2022/06/10 20:38:24;;;;;;;15.40;13.60;;;;;;;23.17;63.04;93998.25;4983630;28;20805;-80
2022/06/10 20:40:50;;;;;;;15.40;14.00;;;;;;;23.28;62.87;94000.78;4982621;28;20441;-80
2022/06/10 20:43:17;;;;;;;17.30;15.70;;;;;;;23.16;63.53;94001.19;4975357;28;20464;-81
2022/06/10 20:45:46;;;;;;;16.57;15.07;;;;;;;23.32;63.11;93999.13;4978977;28;21040;-80
2022/06/10 20:48:38;;;;;;;15.67;14.37;;;;;;;23.45;62.94;94010.91;4979170;28;21909;-81
2022/06/10 20:51:20;;;;;;;15.33;13.73;;;;;;;23.68;61.97;94006.56;4977135;28;20452;-82
2022/06/10 20:53:46;;;;;;;16.83;15.30;;;;;;;23.82;61.05;94007.41;4969010;28;20501;-82
2022/06/10 20:56:15;;;;;;;17.43;15.70;;;;;;;23.72;61.45;94015.59;4974801;28;21214;-82
2022/06/10 20:58:41;;;;;;;15.70;14.30;;;;;;;23.37;62.60;94012.38;4971219;28;20500;-80
2022/06/10 21:01:24;;;;;;;15.63;14.10;;;;;;;23.55;62.17;94016.91;4968040;28;20484;-80
2022/06/10 21:09:22;;;;;;;15.77;14.37;;;;;;;23.54;62.11;94026.03;4971269;28;20496;-82
2022/06/10 21:11:47;;;;;;;16.87;15.23;;;;;;;23.55;62.26;94019.56;4972458;28;20514;-81
2022/06/10 21:14:13;;;;;;;17.10;15.40;;;;;;;23.53;62.16;94021.75;4975442;28;20495;-80
2022/06/10 21:16:41;;;;;;;17.57;15.90;;;;;;;23.54;62.45;94025.19;4973447;28;20192;-81
2022/06/10 21:19:17;;;;;;;16.60;15.10;;;;;;;23.71;61.96;94022.00;4971565;28;20182;-81
2022/06/10 21:21:44;;;;;;;16.50;15.00;;;;;;;23.72;61.78;94029.72;4972685;28;20487;-81
2022/06/10 21:24:11;;;;;;;15.87;14.20;;;;;;;23.52;62.52;94027.38;4976018;28;20508;-82
2022/06/10 21:26:38;;;;;;;16.90;13.97;;;;;;;23.53;62.47;94021.75;4975274;28;20504;-82
2022/06/10 21:29:05;;;;;;;14.80;13.40;;;;;;;23.45;63.09;94025.09;4972156;28;20417;-81
2022/06/10 21:31:33;;;;;;;15.70;14.17;;;;;;;23.66;61.38;94024.78;4974246;28;20443;-82
2022/06/10 21:34:02;;;;;;;17.47;15.90;;;;;;;23.66;61.42;94030.13;4972671;28;20425;-81
2022/06/10 21:36:34;;;;;;;17.33;14.80;;;;;;;23.54;61.91;94023.34;4975994;28;20460;-81
2022/06/10 21:39:04;;;;;;;16.70;15.00;;;;;;;23.54;62.05;94018.00;4972713;28;20409;-81
2022/06/10 21:41:39;;;;;;;16.37;14.87;;;;;;;23.55;62.15;94019.56;4975050;28;20472;-82
2022/06/10 21:44:14;;;;;;;17.10;15.40;;;;;;;23.51;62.31;94013.22;4971900;28;20457;-81
2022/06/10 21:46:49;;;;;;;17.27;15.47;;;;;;;23.84;61.20;94010.59;4967410;28;20433;-81
2022/06/10 21:49:28;;;;;;;15.37;14.07;;;;;;;23.69;61.32;94018.84;4973176;28;20634;-81
2022/06/10 21:51:56;;;;;;;16.83;15.33;;;;;;;23.71;61.26;94009.47;4973967;28;20520;-81
2022/06/10 21:54:23;;;;;;;15.17;13.77;;;;;;;23.69;61.08;94011.59;4973350;28;20475;-81
2022/06/10 21:56:50;;;;;;;15.30;13.90;;;;;;;23.31;62.52;94008.19;4970456;28;20456;-81
2022/06/10 21:59:18;;;;;;;15.43;13.80;;;;;;;23.44;62.12;94004.78;4972266;28;20441;-81
2022/06/10 22:01:45;;;;;;;16.73;13.57;;;;;;;23.19;62.90;94001.41;4972001;28;20432;-81
2022/06/10 22:04:13;;;;;;;14.63;13.13;;;;;;;22.96;63.44;94007.59;4969737;28;20516;-81
2022/06/10 22:06:41;;;;;;;17.27;15.57;;;;;;;23.17;63.17;94002.81;4969477;28;20442;-81
2022/06/10 22:09:17;;;;;;;21.50;15.90;;;;;;;23.33;63.32;93998.81;4974178;28;20429;-82
2022/06/10 22:11:45;;;;;;;17.50;16.00;;;;;;;23.39;63.27;94005.69;4970554;28;20477;-81
2022/06/10 22:14:11;;;;;;;16.73;15.03;;;;;;;23.42;62.71;93998.94;4961736;28;20429;-82
2022/06/10 22:16:58;;;;;;;17.40;15.80;;;;;;;23.74;61.82;94000.06;4971346;28;20429;-81
2022/06/10 22:19:24;;;;;;;16.00;14.30;;;;;;;23.27;63.14;93991.16;4972730;28;20685;-82
2022/06/10 22:21:59;;;;;;;17.10;15.40;;;;;;;23.63;61.89;93987.94;4972054;28;20429;-82
2022/06/10 22:24:29;;;;;;;17.70;15.90;;;;;;;23.17;63.14;93981.44;4969171;28;20740;-81
2022/06/10 22:26:56;;;;;;;19.63;17.73;;;;;;;23.29;62.57;93986.34;4974953;28;20433;-81
2022/06/10 22:29:22;;;;;;;18.43;16.70;;;;;;;23.10;63.23;93973.78;4972496;28;20429;-81
2022/06/10 22:31:50;;;;;;;20.43;15.50;;;;;;;22.74;64.89;93982.25;4973929;28;20443;-81
2022/06/10 22:34:34;;;;;;;19.77;16.80;;;;;;;22.48;64.86;93976.47;4972646;28;20489;-81
2022/06/10 22:37:01;;;;;;;18.73;16.77;;;;;;;22.54;65.01;93983.31;4970944;28;20429;-81
2022/06/10 22:39:27;;;;;;;19.43;17.53;;;;;;;22.47;65.25;93987.41;4970750;28;20500;-81
2022/06/10 22:41:52;;;;;;;17.43;15.57;;;;;;;22.68;64.29;93991.41;4971892;28;20560;-81
2022/06/10 22:44:21;;;;;;;18.60;16.70;;;;;;;22.22;66.22;93990.06;4972748;28;20429;-81
2022/06/10 22:46:51;;;;;;;21.00;18.87;;;;;;;22.57;65.32;93985.41;4973157;28;20205;-82
2022/06/10 22:49:23;;;;;;;19.70;17.60;;;;;;;22.32;66.27;93986.50;4976864;28;20507;-81
2022/06/10 22:51:57;;;;;;;19.23;17.23;;;;;;;22.38;65.84;93985.34;4975897;28;20517;-82
2022/06/10 22:54:24;;;;;;;19.57;17.67;;;;;;;22.90;64.90;93987.41;4978786;28;20456;-80
2022/06/10 22:56:50;;;;;;;20.17;16.90;;;;;;;23.15;64.49;93984.41;4982727;28;20435;-82
2022/06/10 22:59:16;;;;;;;18.70;16.70;;;;;;;23.32;64.19;93983.09;4983151;28;20423;-82
2022/06/10 23:01:43;;;;;;;19.93;17.90;;;;;;;23.46;63.78;93978.59;4983960;28;20445;-81
2022/06/10 23:06:56;;;;;;;18.07;16.17;;;;;;;23.55;63.32;93976.84;4989667;28;20444;-82
2022/06/10 23:12:28;;;;;;;17.90;16.20;;;;;;;23.62;62.96;93981.81;4986814;28;20727;-81
2022/06/10 23:14:55;;;;;;;18.90;17.17;;;;;;;23.82;62.29;93986.03;4979216;28;20431;-81
2022/06/10 23:17:26;;;;;;;18.83;16.93;;;;;;;23.62;62.33;93983.69;4996358;28;20443;-82
2022/06/10 23:19:55;;;;;;;17.93;16.13;;;;;;;23.51;62.56;93983.84;4983215;28;21037;-82
2022/06/10 23:22:25;;;;;;;20.07;18.10;;;;;;;23.10;63.92;93975.66;4984441;28;20602;-82
2022/06/10 23:24:51;;;;;;;21.23;18.87;;;;;;;23.39;63.31;93983.50;4983488;28;20412;-83
2022/06/10 23:27:20;;;;;;;22.63;20.23;;;;;;;23.55;63.05;93973.38;4990407;28;20440;-81
2022/06/10 23:29:46;;;;;;;21.30;19.27;;;;;;;23.66;62.55;93971.34;4986170;28;20877;-82
2022/06/10 23:32:18;;;;;;;21.87;19.53;;;;;;;23.55;62.99;93976.84;4982608;28;21186;-82
2022/06/10 23:34:45;;;;;;;20.77;18.50;;;;;;;23.64;62.55;93962.78;4982251;28;20787;-81
2022/06/10 23:37:19;;;;;;;22.37;20.27;;;;;;;23.47;63.55;93974.84;4982101;28;20884;-81
2022/06/10 23:39:45;;;;;;;19.50;17.57;;;;;;;23.69;62.79;93976.06;4990382;28;20432;-81
2022/06/10 23:42:25;;;;;;;20.40;18.47;;;;;;;23.74;62.69;93971.44;4987309;28;20848;-82
2022/06/10 23:44:51;;;;;;;20.30;18.30;;;;;;;23.72;62.13;93972.84;4984510;28;20187;-82
2022/06/10 23:53:00;;;;;;;19.07;17.17;;;;;;;23.51;62.37;93975.84;4988814;28;20411;-81
2022/06/10 23:58:54;;;;;;;24.77;22.07;;;;;;;22.99;64.00;93969.66;4989429;28;20467;-82
